sensor_id;sensor_type;location;lat;lon;timestamp;pressure;altitude;pressure_sealevel;temperature;humidity
74327;BME280;62745;51.060;13.786;2022-12-18T00:00:26;101931.38;;;-7.59;86.98
74327;BME280;62745;51.060;13.786;2022-12-18T00:02:51;101929.09;;;-7.71;86.71
74327;BME280;62745;51.060;13.786;2022-12-18T00:05:16;101921.78;;;-7.53;86.58
74327;BME280;62745;51.060;13.786;2022-12-18T00:07:42;101932.13;;;-7.16;85.58
74327;BME280;62745;51.060;13.786;2022-12-18T00:10:07;101903.03;;;-7.31;85.99
74327;BME280;62745;51.060;13.786;2022-12-18T00:12:33;101911.03;;;-7.06;85.04
74327;BME280;62745;51.060;13.786;2022-12-18T00:14:58;101919.38;;;-6.60;83.56
74327;BME280;62745;51.060;13.786;2022-12-18T00:17:23;101939.28;;;-6.92;83.44
74327;BME280;62745;51.060;13.786;2022-12-18T00:19:48;101942.06;;;-7.00;83.75
74327;BME280;62745;51.060;13.786;2022-12-18T00:22:14;101958.28;;;-7.25;84.75
74327;BME280;62745;51.060;13.786;2022-12-18T00:24:39;101958.22;;;-7.60;85.90
74327;BME280;62745;51.060;13.786;2022-12-18T00:27:04;101956.78;;;-6.66;83.97
74327;BME280;62745;51.060;13.786;2022-12-18T00:29:29;101953.88;;;-6.86;82.91
74327;BME280;62745;51.060;13.786;2022-12-18T00:31:55;101959.25;;;-7.30;83.21
74327;BME280;62745;51.060;13.786;2022-12-18T00:34:20;101957.72;;;-7.37;85.04
74327;BME280;62745;51.060;13.786;2022-12-18T00:36:47;101961.97;;;-7.71;85.12
74327;BME280;62745;51.060;13.786;2022-12-18T00:39:12;101950.25;;;-7.91;85.26
74327;BME280;62745;51.060;13.786;2022-12-18T00:41:38;101967.69;;;-7.97;86.55
74327;BME280;62745;51.060;13.786;2022-12-18T00:44:22;101975.41;;;-7.17;85.37
74327;BME280;62745;51.060;13.786;2022-12-18T00:46:48;101978.78;;;-6.79;83.97
74327;BME280;62745;51.060;13.786;2022-12-18T00:49:14;101965.72;;;-6.76;82.50
74327;BME280;62745;51.060;13.786;2022-12-18T00:51:41;101982.69;;;-7.33;85.37
74327;BME280;62745;51.060;13.786;2022-12-18T00:54:06;101986.47;;;-7.46;86.05
74327;BME280;62745;51.060;13.786;2022-12-18T00:56:31;101978.03;;;-7.55;86.52
74327;BME280;62745;51.060;13.786;2022-12-18T00:58:56;101985.72;;;-7.51;86.97
74327;BME280;62745;51.060;13.786;2022-12-18T01:01:22;101986.09;;;-7.68;87.20
74327;BME280;62745;51.060;13.786;2022-12-18T01:03:48;101974.28;;;-7.81;87.53
74327;BME280;62745;51.060;13.786;2022-12-18T01:06:14;101961.38;;;-7.84;88.38
74327;BME280;62745;51.060;13.786;2022-12-18T01:08:39;101978.53;;;-7.78;88.51
74327;BME280;62745;51.060;13.786;2022-12-18T01:11:14;101980.09;;;-7.33;86.62
74327;BME280;62745;51.060;13.786;2022-12-18T01:13:40;101980.56;;;-7.52;85.83
74327;BME280;62745;51.060;13.786;2022-12-18T01:16:06;101981.97;;;-7.78;86.61
74327;BME280;62745;51.060;13.786;2022-12-18T01:18:32;101980.63;;;-7.96;87.66
74327;BME280;62745;51.060;13.786;2022-12-18T01:20:57;101966.25;;;-8.10;87.81
74327;BME280;62745;51.060;13.786;2022-12-18T01:23:23;101985.63;;;-7.86;88.78
74327;BME280;62745;51.060;13.786;2022-12-18T01:25:48;102001.47;;;-8.00;88.60
74327;BME280;62745;51.060;13.786;2022-12-18T01:28:14;101996.97;;;-7.92;87.97
74327;BME280;62745;51.060;13.786;2022-12-18T01:30:39;102008.66;;;-7.73;87.64
74327;BME280;62745;51.060;13.786;2022-12-18T01:33:05;102006.97;;;-7.72;87.03
74327;BME280;62745;51.060;13.786;2022-12-18T01:35:30;102004.47;;;-7.78;87.16
74327;BME280;62745;51.060;13.786;2022-12-18T01:37:56;101997.81;;;-7.92;87.62
74327;BME280;62745;51.060;13.786;2022-12-18T01:40:22;102009.22;;;-7.99;86.63
74327;BME280;62745;51.060;13.786;2022-12-18T01:42:53;102007.09;;;-7.41;84.94
74327;BME280;62745;51.060;13.786;2022-12-18T01:45:27;102006.97;;;-7.74;86.63
74327;BME280;62745;51.060;13.786;2022-12-18T01:50:40;101982.84;;;-7.77;85.20
74327;BME280;62745;51.060;13.786;2022-12-18T01:53:10;102002.75;;;-7.79;85.87
74327;BME280;62745;51.060;13.786;2022-12-18T01:55:48;102006.16;;;-7.77;87.54
74327;BME280;62745;51.060;13.786;2022-12-18T01:58:14;101987.66;;;-8.01;86.99
74327;BME280;62745;51.060;13.786;2022-12-18T02:00:39;102003.03;;;-7.93;86.89
74327;BME280;62745;51.060;13.786;2022-12-18T02:03:05;101999.34;;;-7.81;85.73
74327;BME280;62745;51.060;13.786;2022-12-18T02:05:47;102009.28;;;-7.62;85.77
74327;BME280;62745;51.060;13.786;2022-12-18T02:08:22;102002.13;;;-7.89;85.76
74327;BME280;62745;51.060;13.786;2022-12-18T02:17:22;102008.22;;;-7.14;83.35
74327;BME280;62745;51.060;13.786;2022-12-18T02:20:18;102013.00;;;-7.73;84.01
74327;BME280;62745;51.060;13.786;2022-12-18T02:23:06;102012.63;;;-7.55;84.88
74327;BME280;62745;51.060;13.786;2022-12-18T02:28:25;102000.78;;;-7.30;82.74
74327;BME280;62745;51.060;13.786;2022-12-18T02:30:54;102007.00;;;-7.00;83.21
74327;BME280;62745;51.060;13.786;2022-12-18T02:33:22;102012.91;;;-6.59;82.06
74327;BME280;62745;51.060;13.786;2022-12-18T02:35:50;102016.09;;;-6.48;80.40
74327;BME280;62745;51.060;13.786;2022-12-18T02:38:17;102015.81;;;-7.07;81.56
74327;BME280;62745;51.060;13.786;2022-12-18T02:40:43;102001.69;;;-7.69;84.23
74327;BME280;62745;51.060;13.786;2022-12-18T02:43:11;102017.22;;;-7.68;85.29
74327;BME280;62745;51.060;13.786;2022-12-18T02:45:47;101985.75;;;-7.52;84.66
74327;BME280;62745;51.060;13.786;2022-12-18T02:48:13;102022.72;;;-7.06;83.94
74327;BME280;62745;51.060;13.786;2022-12-18T02:50:45;102019.22;;;-7.03;82.16
74327;BME280;62745;51.060;13.786;2022-12-18T02:53:28;102025.72;;;-7.22;83.05
74327;BME280;62745;51.060;13.786;2022-12-18T02:56:14;102010.13;;;-7.60;82.72
74327;BME280;62745;51.060;13.786;2022-12-18T02:59:02;102014.38;;;-7.18;84.47
74327;BME280;62745;51.060;13.786;2022-12-18T03:06:58;102014.38;;;-7.57;82.74
74327;BME280;62745;51.060;13.786;2022-12-18T03:09:29;102017.91;;;-7.21;82.61
74327;BME280;62745;51.060;13.786;2022-12-18T03:12:00;102015.25;;;-6.82;80.42
74327;BME280;62745;51.060;13.786;2022-12-18T03:15:13;102006.88;;;-6.95;80.87
74327;BME280;62745;51.060;13.786;2022-12-18T03:17:36;102010.75;;;-7.11;79.78
74327;BME280;62745;51.060;13.786;2022-12-18T03:20:10;102022.53;;;-7.34;81.63
74327;BME280;62745;51.060;13.786;2022-12-18T03:22:38;102013.78;;;-6.94;81.04
74327;BME280;62745;51.060;13.786;2022-12-18T03:25:06;102037.31;;;-7.37;81.45
74327;BME280;62745;51.060;13.786;2022-12-18T03:27:33;102032.75;;;-7.28;82.66
74327;BME280;62745;51.060;13.786;2022-12-18T03:30:04;102035.69;;;-7.04;81.39
74327;BME280;62745;51.060;13.786;2022-12-18T03:33:18;102010.88;;;-7.16;80.25
74327;BME280;62745;51.060;13.786;2022-12-18T03:35:45;102024.28;;;-7.34;82.29
74327;BME280;62745;51.060;13.786;2022-12-18T03:38:11;102026.56;;;-7.61;81.72
74327;BME280;62745;51.060;13.786;2022-12-18T03:43:54;102037.75;;;-7.99;83.67
74327;BME280;62745;51.060;13.786;2022-12-18T03:49:25;102021.91;;;-8.30;85.19
74327;BME280;62745;51.060;13.786;2022-12-18T03:52:07;102036.44;;;-8.20;85.54
74327;BME280;62745;51.060;13.786;2022-12-18T03:54:35;102043.72;;;-8.38;85.24
74327;BME280;62745;51.060;13.786;2022-12-18T03:57:07;102026.78;;;-8.56;86.59
74327;BME280;62745;51.060;13.786;2022-12-18T03:59:35;102028.16;;;-8.37;85.84
74327;BME280;62745;51.060;13.786;2022-12-18T04:02:04;102044.56;;;-8.36;86.16
74327;BME280;62745;51.060;13.786;2022-12-18T04:04:30;102047.03;;;-7.47;82.54
74327;BME280;62745;51.060;13.786;2022-12-18T04:06:57;102042.19;;;-7.23;81.06
74327;BME280;62745;51.060;13.786;2022-12-18T04:09:23;102046.22;;;-7.49;81.18
74327;BME280;62745;51.060;13.786;2022-12-18T04:11:49;102039.94;;;-8.24;82.84
74327;BME280;62745;51.060;13.786;2022-12-18T04:14:14;102033.94;;;-8.26;83.20
74327;BME280;62745;51.060;13.786;2022-12-18T04:16:39;102036.03;;;-8.00;83.66
74327;BME280;62745;51.060;13.786;2022-12-18T04:19:05;102039.94;;;-8.24;84.14
74327;BME280;62745;51.060;13.786;2022-12-18T04:21:30;102056.75;;;-7.57;81.58
74327;BME280;62745;51.060;13.786;2022-12-18T04:23:56;102058.13;;;-7.80;82.06
74327;BME280;62745;51.060;13.786;2022-12-18T04:26:21;102046.88;;;-8.23;84.42
74327;BME280;62745;51.060;13.786;2022-12-18T04:28:46;102063.75;;;-7.60;82.54
74327;BME280;62745;51.060;13.786;2022-12-18T04:31:12;102051.16;;;-7.78;82.46
74327;BME280;62745;51.060;13.786;2022-12-18T04:33:37;102055.38;;;-8.16;83.90
74327;BME280;62745;51.060;13.786;2022-12-18T04:36:03;102052.22;;;-8.33;83.68
74327;BME280;62745;51.060;13.786;2022-12-18T04:38:28;102056.72;;;-7.97;84.18
74327;BME280;62745;51.060;13.786;2022-12-18T04:40:53;102061.16;;;-7.60;82.09
74327;BME280;62745;51.060;13.786;2022-12-18T04:43:19;102067.28;;;-8.06;83.11
74327;BME280;62745;51.060;13.786;2022-12-18T04:45:44;102059.69;;;-7.73;82.65
74327;BME280;62745;51.060;13.786;2022-12-18T04:48:10;102068.94;;;-7.60;82.18
74327;BME280;62745;51.060;13.786;2022-12-18T04:50:35;102066.41;;;-8.06;83.25
74327;BME280;62745;51.060;13.786;2022-12-18T04:53:00;102071.13;;;-8.28;83.63
74327;BME280;62745;51.060;13.786;2022-12-18T04:55:26;102077.34;;;-7.89;81.58
74327;BME280;62745;51.060;13.786;2022-12-18T04:57:52;102074.97;;;-7.60;81.45
74327;BME280;62745;51.060;13.786;2022-12-18T05:00:17;102063.53;;;-7.49;80.90
74327;BME280;62745;51.060;13.786;2022-12-18T05:02:42;102049.91;;;-7.61;79.78
74327;BME280;62745;51.060;13.786;2022-12-18T05:05:08;102061.22;;;-8.05;81.46
74327;BME280;62745;51.060;13.786;2022-12-18T05:07:33;102065.44;;;-8.45;82.95
74327;BME280;62745;51.060;13.786;2022-12-18T05:09:59;102054.09;;;-8.40;83.63
74327;BME280;62745;51.060;13.786;2022-12-18T05:12:24;102071.19;;;-8.31;83.51
74327;BME280;62745;51.060;13.786;2022-12-18T05:14:50;102049.50;;;-8.72;83.68
74327;BME280;62745;51.060;13.786;2022-12-18T05:17:15;102070.53;;;-8.41;83.28
74327;BME280;62745;51.060;13.786;2022-12-18T05:19:40;102063.34;;;-8.76;84.99
74327;BME280;62745;51.060;13.786;2022-12-18T05:22:06;102055.28;;;-8.59;84.20
74327;BME280;62745;51.060;13.786;2022-12-18T05:24:31;102063.16;;;-8.64;84.87
74327;BME280;62745;51.060;13.786;2022-12-18T05:26:57;102058.81;;;-8.62;84.14
74327;BME280;62745;51.060;13.786;2022-12-18T05:29:22;102073.19;;;-7.99;83.03
74327;BME280;62745;51.060;13.786;2022-12-18T05:31:47;102075.38;;;-8.23;82.08
74327;BME280;62745;51.060;13.786;2022-12-18T05:34:12;102058.72;;;-8.56;83.46
74327;BME280;62745;51.060;13.786;2022-12-18T05:36:38;102057.09;;;-8.16;81.04
74327;BME280;62745;51.060;13.786;2022-12-18T05:39:04;102071.78;;;-8.15;81.05
74327;BME280;62745;51.060;13.786;2022-12-18T05:41:29;102048.88;;;-8.37;82.02
74327;BME280;62745;51.060;13.786;2022-12-18T05:43:54;102069.19;;;-8.63;83.21
74327;BME280;62745;51.060;13.786;2022-12-18T05:46:20;102067.34;;;-8.57;84.73
74327;BME280;62745;51.060;13.786;2022-12-18T05:48:45;102070.78;;;-8.10;81.93
74327;BME280;62745;51.060;13.786;2022-12-18T05:51:14;102074.31;;;-8.60;83.16
74327;BME280;62745;51.060;13.786;2022-12-18T05:53:41;102074.03;;;-8.96;84.18
74327;BME280;62745;51.060;13.786;2022-12-18T05:56:09;102075.88;;;-9.04;84.95
74327;BME280;62745;51.060;13.786;2022-12-18T05:58:35;102081.06;;;-9.04;85.12
74327;BME280;62745;51.060;13.786;2022-12-18T06:01:18;102084.97;;;-8.78;85.87
74327;BME280;62745;51.060;13.786;2022-12-18T06:03:44;102086.34;;;-8.55;83.01
74327;BME280;62745;51.060;13.786;2022-12-18T06:06:24;102079.97;;;-8.91;84.01
74327;BME280;62745;51.060;13.786;2022-12-18T06:08:50;102056.22;;;-9.17;84.36
74327;BME280;62745;51.060;13.786;2022-12-18T06:11:18;102090.59;;;-9.07;84.84
74327;BME280;62745;51.060;13.786;2022-12-18T06:13:43;102095.81;;;-9.11;85.15
74327;BME280;62745;51.060;13.786;2022-12-18T06:16:08;102098.81;;;-8.80;84.26
74327;BME280;62745;51.060;13.786;2022-12-18T06:18:37;102085.41;;;-9.07;84.77
74327;BME280;62745;51.060;13.786;2022-12-18T06:21:02;102083.81;;;-9.15;84.68
74327;BME280;62745;51.060;13.786;2022-12-18T06:23:27;102093.31;;;-9.15;84.56
74327;BME280;62745;51.060;13.786;2022-12-18T06:25:53;102108.16;;;-9.29;85.25
74327;BME280;62745;51.060;13.786;2022-12-18T06:28:18;102101.13;;;-9.18;85.81
74327;BME280;62745;51.060;13.786;2022-12-18T06:30:45;102098.19;;;-8.43;83.19
74327;BME280;62745;51.060;13.786;2022-12-18T06:33:10;102100.88;;;-9.01;83.91
74327;BME280;62745;51.060;13.786;2022-12-18T06:35:36;102100.03;;;-9.02;84.61
74327;BME280;62745;51.060;13.786;2022-12-18T06:38:02;102089.09;;;-9.24;84.46
74327;BME280;62745;51.060;13.786;2022-12-18T06:40:28;102115.63;;;-9.10;84.90
74327;BME280;62745;51.060;13.786;2022-12-18T06:42:53;102104.56;;;-9.18;85.24
74327;BME280;62745;51.060;13.786;2022-12-18T06:45:18;102085.00;;;-9.38;85.77
74327;BME280;62745;51.060;13.786;2022-12-18T06:47:45;102092.84;;;-9.45;85.53
74327;BME280;62745;51.060;13.786;2022-12-18T06:50:10;102110.66;;;-9.22;85.44
74327;BME280;62745;51.060;13.786;2022-12-18T06:52:36;102103.22;;;-9.48;85.50
74327;BME280;62745;51.060;13.786;2022-12-18T06:55:02;102122.09;;;-9.39;87.18
74327;BME280;62745;51.060;13.786;2022-12-18T06:57:27;102117.66;;;-9.30;87.06
74327;BME280;62745;51.060;13.786;2022-12-18T06:59:53;102126.31;;;-9.32;87.37
74327;BME280;62745;51.060;13.786;2022-12-18T07:02:18;102113.09;;;-8.54;84.80
74327;BME280;62745;51.060;13.786;2022-12-18T07:04:43;102115.66;;;-8.53;82.55
74327;BME280;62745;51.060;13.786;2022-12-18T07:07:08;102105.41;;;-8.12;83.13
74327;BME280;62745;51.060;13.786;2022-12-18T07:09:34;102129.31;;;-7.97;81.89
74327;BME280;62745;51.060;13.786;2022-12-18T07:12:00;102141.00;;;-7.74;80.05
74327;BME280;62745;51.060;13.786;2022-12-18T07:14:26;102119.94;;;-8.50;82.23
74327;BME280;62745;51.060;13.786;2022-12-18T07:16:51;102143.94;;;-8.40;81.38
74327;BME280;62745;51.060;13.786;2022-12-18T07:19:19;102135.03;;;-8.78;82.15
74327;BME280;62745;51.060;13.786;2022-12-18T07:21:44;102122.50;;;-9.07;83.77
74327;BME280;62745;51.060;13.786;2022-12-18T07:24:09;102121.78;;;-8.58;83.59
74327;BME280;62745;51.060;13.786;2022-12-18T07:26:35;102132.91;;;-8.52;82.07
74327;BME280;62745;51.060;13.786;2022-12-18T07:29:00;102141.16;;;-8.82;82.86
74327;BME280;62745;51.060;13.786;2022-12-18T07:31:25;102126.75;;;-9.01;84.05
74327;BME280;62745;51.060;13.786;2022-12-18T07:33:51;102134.78;;;-8.61;83.48
74327;BME280;62745;51.060;13.786;2022-12-18T07:36:17;102146.22;;;-8.76;83.43
74327;BME280;62745;51.060;13.786;2022-12-18T07:38:49;102138.69;;;-8.93;84.43
74327;BME280;62745;51.060;13.786;2022-12-18T07:41:15;102166.09;;;-8.76;83.95
74327;BME280;62745;51.060;13.786;2022-12-18T07:43:41;102138.47;;;-8.25;83.93
74327;BME280;62745;51.060;13.786;2022-12-18T07:46:08;102162.22;;;-7.99;83.23
74327;BME280;62745;51.060;13.786;2022-12-18T07:48:34;102152.22;;;-8.20;81.80
74327;BME280;62745;51.060;13.786;2022-12-18T07:51:03;102166.25;;;-8.33;82.73
74327;BME280;62745;51.060;13.786;2022-12-18T07:53:29;102173.31;;;-8.41;83.35
74327;BME280;62745;51.060;13.786;2022-12-18T07:55:59;102177.75;;;-8.48;84.44
74327;BME280;62745;51.060;13.786;2022-12-18T07:58:25;102170.75;;;-7.94;84.07
74327;BME280;62745;51.060;13.786;2022-12-18T08:00:51;102170.66;;;-7.88;83.02
74327;BME280;62745;51.060;13.786;2022-12-18T08:03:17;102162.19;;;-7.51;80.44
74327;BME280;62745;51.060;13.786;2022-12-18T08:05:42;102157.44;;;-7.75;81.98
74327;BME280;62745;51.060;13.786;2022-12-18T08:08:07;102132.84;;;-7.54;80.99
74327;BME280;62745;51.060;13.786;2022-12-18T08:10:33;102146.47;;;-7.03;79.79
74327;BME280;62745;51.060;13.786;2022-12-18T08:12:58;102149.34;;;-7.15;78.25
74327;BME280;62745;51.060;13.786;2022-12-18T08:15:23;102144.72;;;-6.64;78.37
74327;BME280;62745;51.060;13.786;2022-12-18T08:17:49;102132.41;;;-6.57;78.01
74327;BME280;62745;51.060;13.786;2022-12-18T08:20:14;102123.00;;;-6.99;79.83
74327;BME280;62745;51.060;13.786;2022-12-18T08:22:41;102136.09;;;-6.66;78.42
74327;BME280;62745;51.060;13.786;2022-12-18T08:25:07;102135.97;;;-6.99;80.17
74327;BME280;62745;51.060;13.786;2022-12-18T08:27:32;102137.69;;;-6.98;80.34
74327;BME280;62745;51.060;13.786;2022-12-18T08:29:58;102131.72;;;-7.01;79.70
74327;BME280;62745;51.060;13.786;2022-12-18T08:32:25;102128.47;;;-6.74;79.89
74327;BME280;62745;51.060;13.786;2022-12-18T08:34:50;102139.56;;;-6.30;78.59
74327;BME280;62745;51.060;13.786;2022-12-18T08:37:15;102152.97;;;-6.47;78.69
74327;BME280;62745;51.060;13.786;2022-12-18T08:39:41;102151.78;;;-6.69;79.56
74327;BME280;62745;51.060;13.786;2022-12-18T08:42:06;102148.25;;;-6.67;80.00
74327;BME280;62745;51.060;13.786;2022-12-18T08:44:50;102145.81;;;-6.74;80.09
74327;BME280;62745;51.060;13.786;2022-12-18T08:47:15;102153.97;;;-6.52;80.13
74327;BME280;62745;51.060;13.786;2022-12-18T08:49:40;102141.63;;;-6.44;79.34
74327;BME280;62745;51.060;13.786;2022-12-18T08:52:06;102140.13;;;-5.86;77.02
74327;BME280;62745;51.060;13.786;2022-12-18T08:54:31;102094.38;;;-5.93;77.96
74327;BME280;62745;51.060;13.786;2022-12-18T08:56:56;102129.13;;;-5.65;77.27
74327;BME280;62745;51.060;13.786;2022-12-18T08:59:24;102144.78;;;-5.66;77.70
74327;BME280;62745;51.060;13.786;2022-12-18T09:01:50;102149.34;;;-5.75;76.68
74327;BME280;62745;51.060;13.786;2022-12-18T09:04:16;102151.63;;;-5.62;76.62
74327;BME280;62745;51.060;13.786;2022-12-18T09:06:42;102144.56;;;-5.28;77.26
74327;BME280;62745;51.060;13.786;2022-12-18T09:09:08;102121.22;;;-5.31;76.88
74327;BME280;62745;51.060;13.786;2022-12-18T09:11:34;102113.44;;;-5.03;75.95
74327;BME280;62745;51.060;13.786;2022-12-18T09:14:01;102126.81;;;-4.86;75.15
74327;BME280;62745;51.060;13.786;2022-12-18T09:16:27;102128.31;;;-4.78;75.04
74327;BME280;62745;51.060;13.786;2022-12-18T09:18:57;102153.50;;;-4.79;75.30
74327;BME280;62745;51.060;13.786;2022-12-18T09:21:29;102150.13;;;-4.55;76.04
74327;BME280;62745;51.060;13.786;2022-12-18T09:23:55;102158.28;;;-4.11;77.60
74327;BME280;62745;51.060;13.786;2022-12-18T09:26:21;102173.97;;;-3.86;78.17
74327;BME280;62745;51.060;13.786;2022-12-18T09:28:47;102174.63;;;-3.56;77.82
74327;BME280;62745;51.060;13.786;2022-12-18T09:31:13;102178.41;;;-3.40;78.40
74327;BME280;62745;51.060;13.786;2022-12-18T09:33:38;102171.66;;;-2.98;77.30
74327;BME280;62745;51.060;13.786;2022-12-18T09:36:05;102138.94;;;-2.87;78.50
74327;BME280;62745;51.060;13.786;2022-12-18T09:38:32;102161.06;;;-2.50;76.85
74327;BME280;62745;51.060;13.786;2022-12-18T09:41:00;102155.78;;;-2.28;75.74
74327;BME280;62745;51.060;13.786;2022-12-18T09:43:42;102157.72;;;-2.12;74.94
74327;BME280;62745;51.060;13.786;2022-12-18T09:46:14;102162.81;;;-1.88;74.37
74327;BME280;62745;51.060;13.786;2022-12-18T09:48:45;102158.13;;;-1.80;73.77
74327;BME280;62745;51.060;13.786;2022-12-18T09:51:15;102148.88;;;-1.48;73.65
74327;BME280;62745;51.060;13.786;2022-12-18T09:53:47;102147.03;;;-1.27;72.84
74327;BME280;62745;51.060;13.786;2022-12-18T09:56:19;102156.63;;;-1.07;71.32
74327;BME280;62745;51.060;13.786;2022-12-18T09:58:55;102130.03;;;-1.00;70.71
74327;BME280;62745;51.060;13.786;2022-12-18T10:01:23;102150.88;;;-0.97;70.66
74327;BME280;62745;51.060;13.786;2022-12-18T10:03:49;102136.47;;;-0.88;70.31
74327;BME280;62745;51.060;13.786;2022-12-18T10:08:53;102128.94;;;-0.41;68.17
74327;BME280;62745;51.060;13.786;2022-12-18T10:11:53;102125.44;;;-0.58;67.49
74327;BME280;62745;51.060;13.786;2022-12-18T10:14:35;102110.38;;;-0.55;68.21
74327;BME280;62745;51.060;13.786;2022-12-18T10:17:28;102105.84;;;-0.34;67.24
74327;BME280;62745;51.060;13.786;2022-12-18T10:20:02;102107.41;;;-0.47;66.99
74327;BME280;62745;51.060;13.786;2022-12-18T10:22:48;102102.47;;;-0.72;67.06
74327;BME280;62745;51.060;13.786;2022-12-18T10:25:25;102099.53;;;-0.47;67.49
74327;BME280;62745;51.060;13.786;2022-12-18T10:27:57;102087.63;;;-0.37;67.00
74327;BME280;62745;51.060;13.786;2022-12-18T10:30:25;102093.44;;;-0.13;66.69
74327;BME280;62745;51.060;13.786;2022-12-18T10:32:51;102064.72;;;-0.16;66.02
74327;BME280;62745;51.060;13.786;2022-12-18T10:35:23;102055.03;;;0.02;65.38
74327;BME280;62745;51.060;13.786;2022-12-18T10:38:20;102073.00;;;0.09;64.94
74327;BME280;62745;51.060;13.786;2022-12-18T10:40:56;102071.56;;;0.37;64.67
74327;BME280;62745;51.060;13.786;2022-12-18T10:43:38;102065.13;;;0.09;64.21
74327;BME280;62745;51.060;13.786;2022-12-18T10:51:39;102068.09;;;0.03;65.16
74327;BME280;62745;51.060;13.786;2022-12-18T10:57:36;102069.69;;;0.39;64.63
74327;BME280;62745;51.060;13.786;2022-12-18T11:02:47;102070.03;;;0.15;64.97
74327;BME280;62745;51.060;13.786;2022-12-18T11:05:26;102071.69;;;0.18;63.36
74327;BME280;62745;51.060;13.786;2022-12-18T11:07:52;102070.38;;;0.09;63.27
74327;BME280;62745;51.060;13.786;2022-12-18T11:10:21;102063.19;;;0.13;63.88
74327;BME280;62745;51.060;13.786;2022-12-18T11:12:47;102063.22;;;-0.05;64.84
74327;BME280;62745;51.060;13.786;2022-12-18T11:15:20;102058.41;;;0.04;64.71
74327;BME280;62745;51.060;13.786;2022-12-18T11:17:48;102047.97;;;0.19;64.24
74327;BME280;62745;51.060;13.786;2022-12-18T11:20:30;102033.56;;;0.42;63.51
74327;BME280;62745;51.060;13.786;2022-12-18T11:23:05;102037.13;;;0.41;63.26
74327;BME280;62745;51.060;13.786;2022-12-18T11:25:36;102039.69;;;0.74;62.94
74327;BME280;62745;51.060;13.786;2022-12-18T11:31:12;102029.09;;;0.76;61.82
74327;BME280;62745;51.060;13.786;2022-12-18T11:33:46;102041.41;;;0.75;62.30
74327;BME280;62745;51.060;13.786;2022-12-18T11:36:14;102029.59;;;0.82;62.40
74327;BME280;62745;51.060;13.786;2022-12-18T11:38:42;102033.41;;;0.93;61.48
74327;BME280;62745;51.060;13.786;2022-12-18T11:41:23;102038.47;;;1.11;60.63
74327;BME280;62745;51.060;13.786;2022-12-18T11:44:14;102031.72;;;0.60;61.72
74327;BME280;62745;51.060;13.786;2022-12-18T11:46:51;102032.47;;;1.09;61.13
74327;BME280;62745;51.060;13.786;2022-12-18T11:49:24;102027.00;;;1.12;60.55
74327;BME280;62745;51.060;13.786;2022-12-18T11:52:20;102033.78;;;1.16;59.96
74327;BME280;62745;51.060;13.786;2022-12-18T11:54:46;102024.75;;;1.06;60.47
74327;BME280;62745;51.060;13.786;2022-12-18T11:57:36;102044.19;;;1.04;60.17
74327;BME280;62745;51.060;13.786;2022-12-18T12:00:18;102044.59;;;1.12;60.30
74327;BME280;62745;51.060;13.786;2022-12-18T12:16:50;102047.88;;;2.20;56.98
74327;BME280;62745;51.060;13.786;2022-12-18T12:19:49;102045.22;;;1.91;57.05
74327;BME280;62745;51.060;13.786;2022-12-18T12:27:57;102053.75;;;2.52;56.02
74327;BME280;62745;51.060;13.786;2022-12-18T12:30:38;102055.78;;;2.20;56.70
74327;BME280;62745;51.060;13.786;2022-12-18T12:33:29;102065.19;;;2.09;57.87
74327;BME280;62745;51.060;13.786;2022-12-18T12:36:20;102062.81;;;2.05;57.03
74327;BME280;62745;51.060;13.786;2022-12-18T12:38:52;102077.34;;;1.38;58.06
74327;BME280;62745;51.060;13.786;2022-12-18T12:41:23;102089.16;;;0.99;59.99
74327;BME280;62745;51.060;13.786;2022-12-18T12:44:14;102090.19;;;1.12;59.84
74327;BME280;62745;51.060;13.786;2022-12-18T12:46:42;102087.38;;;0.68;61.11
74327;BME280;62745;51.060;13.786;2022-12-18T12:49:15;102082.91;;;0.86;60.93
74327;BME280;62745;51.060;13.786;2022-12-18T12:51:44;102080.66;;;0.63;61.25
74327;BME280;62745;51.060;13.786;2022-12-18T12:54:19;102069.94;;;0.34;62.85
74327;BME280;62745;51.060;13.786;2022-12-18T13:02:24;102067.72;;;0.26;61.60
74327;BME280;62745;51.060;13.786;2022-12-18T13:05:49;102066.06;;;0.57;61.51
74327;BME280;62745;51.060;13.786;2022-12-18T13:08:10;102045.72;;;0.12;61.86
74327;BME280;62745;51.060;13.786;2022-12-18T13:10:38;102053.59;;;0.45;61.01
74327;BME280;62745;51.060;13.786;2022-12-18T13:13:14;102056.72;;;0.36;60.96
74327;BME280;62745;51.060;13.786;2022-12-18T13:16:05;102050.31;;;-0.09;61.76
74327;BME280;62745;51.060;13.786;2022-12-18T13:18:31;102058.38;;;-0.29;63.49
74327;BME280;62745;51.060;13.786;2022-12-18T13:21:02;102049.94;;;-0.53;64.19
74327;BME280;62745;51.060;13.786;2022-12-18T13:23:34;102047.63;;;-0.59;64.21
74327;BME280;62745;51.060;13.786;2022-12-18T13:31:59;102065.97;;;-0.77;65.16
74327;BME280;62745;51.060;13.786;2022-12-18T13:34:20;102061.63;;;-0.95;65.23
74327;BME280;62745;51.060;13.786;2022-12-18T13:36:46;102068.28;;;-1.07;65.91
74327;BME280;62745;51.060;13.786;2022-12-18T13:41:45;102059.38;;;-1.40;67.58
74327;BME280;62745;51.060;13.786;2022-12-18T13:44:13;102055.28;;;-1.65;68.01
74327;BME280;62745;51.060;13.786;2022-12-18T13:46:47;102052.81;;;-1.49;68.19
74327;BME280;62745;51.060;13.786;2022-12-18T13:51:48;102063.16;;;-1.46;68.16
74327;BME280;62745;51.060;13.786;2022-12-18T13:56:48;102041.56;;;-1.51;68.72
74327;BME280;62745;51.060;13.786;2022-12-18T13:59:22;102051.44;;;-1.39;69.13
74327;BME280;62745;51.060;13.786;2022-12-18T14:01:57;102051.16;;;-1.52;68.66
74327;BME280;62745;51.060;13.786;2022-12-18T14:04:34;102055.13;;;-1.62;68.71
74327;BME280;62745;51.060;13.786;2022-12-18T14:07:28;102058.38;;;-1.57;70.54
74327;BME280;62745;51.060;13.786;2022-12-18T14:09:59;102051.72;;;-1.83;69.64
74327;BME280;62745;51.060;13.786;2022-12-18T14:12:28;102060.69;;;-1.88;70.05